Thursday 2nd Kite Flying Weather

RENMARK (YREN)
    TAF YREN 020130Z 0202/0214
    36025G38KT CAVOK
    FM020600 35020G30KT CAVOK
    FM020900 36014KT CAVOK
    PROB30 0202/0210 4000 BLOWING DUST
    RMK FM020200 MOD TURB BLW 5000FT TL021400
    T 30 33 30 26 Q 1012 1009 1008 1009

    SPECI YREN 020237Z AUTO 36024G34KT 9999 // NCD 32/02 Q1011 RMK
    RF00.0/000.0

    Subscribe to WGC Newsletter

    GET IN TOUCH




      Input this code: captcha

      General Enquiries, Introductory Flights, Weekend Flying: Bill Mudge, Mobile 0429 413 570

      Membership: Bill Mudge
      Mobile 0429 413 570
      Email: secretary@waikerieglidingclub.com.au

      Hire of Facilities: Bill Mudge
      Email: contact@waikerieglidingclub.com.au

      Our Address:
      Sir Donald Anderson Drive
      Waikerie, 5330
      South Australia

      Postal:
      PO box 320
      Waikerie,5330

      Copyright © 2021 | Privacy | Terms & Conditions